North Chester, Massachusetts
Current Conditions -  °F | °C
As of 6:53 AM on Friday 31 Oct 2014 (Local Time) from KBAF Reporting Station
Overcast Overcast  
Wind Chill: 34°   Ceiling: 4700
Heat Index: 34°   Visibility: 10mi
Dew Point: 32°   Wind: 0mph
Humidity: 92%   Direction: NA
Pressure: 30.03"   Gusts: NA
Location:  42.3047°N, 72.879°W
Report Text: KBAF 311053Z 00000KT 10SM OVC047 01/00 A3003 RMK AO2 SLP174 T00110000
Loading
Personal Weather Stations






























Interactive Weather Map
Tropical Storm Tracking
New forecast layout! Learn more

10-Day Weather Forecast

Advertisements
Track Severe Weather on mobile